createdAt,value
2023-03-12T00:00:14.460Z,37.20
2023-03-12T00:02:41.204Z,26.90
2023-03-12T00:05:08.520Z,17.70
2023-03-12T00:07:36.895Z,18.00
2023-03-12T00:10:05.667Z,17.20
2023-03-12T00:12:32.691Z,19.90
2023-03-12T00:14:59.591Z,20.00
2023-03-12T00:17:26.431Z,19.10
2023-03-12T00:19:54.015Z,15.00
2023-03-12T00:22:23.110Z,15.60
2023-03-12T00:24:52.455Z,9.30
2023-03-12T00:27:20.319Z,12.50
2023-03-12T00:29:47.112Z,8.80
2023-03-12T00:32:14.431Z,8.10
2023-03-12T00:34:41.296Z,10.00
2023-03-12T00:37:08.752Z,10.40
2023-03-12T00:39:35.829Z,15.50
2023-03-12T00:42:02.816Z,14.50
2023-03-12T00:44:29.581Z,10.60
2023-03-12T00:46:56.339Z,13.70
2023-03-12T00:49:23.159Z,13.20
2023-03-12T00:51:50.039Z,15.50
2023-03-12T00:54:16.874Z,15.10
2023-03-12T00:56:43.829Z,11.90
2023-03-12T00:59:10.620Z,12.00
2023-03-12T01:01:37.402Z,13.10
2023-03-12T01:04:04.568Z,13.70
2023-03-12T01:06:31.624Z,16.50
2023-03-12T01:08:58.695Z,12.80
2023-03-12T01:11:25.517Z,13.70
2023-03-12T01:13:52.345Z,12.20
2023-03-12T01:16:19.152Z,12.50
2023-03-12T01:18:46.200Z,13.80
2023-03-12T01:21:13.065Z,14.90
2023-03-12T01:23:39.845Z,11.60
2023-03-12T01:26:06.585Z,17.50
2023-03-12T01:28:33.300Z,13.20
2023-03-12T01:31:12.539Z,12.70
2023-03-12T01:33:40.273Z,12.30
2023-03-12T01:36:18.531Z,12.60
2023-03-12T01:38:45.713Z,13.20
2023-03-12T01:41:13.141Z,18.00
2023-03-12T01:43:40.549Z,15.40
2023-03-12T01:46:38.741Z,13.80
2023-03-12T01:49:27.450Z,17.90
2023-03-12T01:52:12.968Z,17.30
2023-03-12T01:54:52.293Z,19.70
2023-03-12T01:57:27.041Z,19.70
2023-03-12T01:59:59.964Z,19.50
2023-03-12T02:02:28.845Z,17.10
2023-03-12T02:05:08.920Z,18.10
2023-03-12T02:07:36.137Z,9.70
2023-03-12T02:10:04.778Z,16.50
2023-03-12T02:12:32.574Z,15.20
2023-03-12T02:14:59.446Z,17.40
2023-03-12T02:17:26.378Z,18.40
2023-03-12T02:19:55.466Z,18.90
2023-03-12T02:22:23.119Z,17.00
2023-03-12T02:24:57.553Z,17.80
2023-03-12T02:27:24.956Z,16.20
2023-03-12T02:29:52.151Z,15.40
2023-03-12T02:32:26.841Z,16.90
2023-03-12T02:34:53.958Z,16.50
2023-03-12T02:37:20.747Z,16.80
2023-03-12T02:39:57.659Z,11.50
2023-03-12T02:42:25.076Z,14.80
2023-03-12T02:44:52.591Z,14.70
2023-03-12T02:47:19.450Z,15.00
2023-03-12T02:49:46.639Z,13.00
2023-03-12T02:52:13.450Z,13.30
2023-03-12T02:54:40.371Z,11.90
2023-03-12T02:57:07.131Z,14.70
2023-03-12T02:59:34.525Z,14.50
2023-03-12T03:02:02.235Z,15.70
2023-03-12T03:04:31.084Z,16.40
2023-03-12T03:06:58.035Z,14.60
2023-03-12T03:09:25.340Z,15.90
2023-03-12T03:11:52.897Z,18.00
2023-03-12T03:14:20.060Z,19.40
2023-03-12T03:16:48.349Z,17.30
2023-03-12T03:19:15.169Z,21.00
2023-03-12T03:21:41.972Z,19.20
2023-03-12T03:24:08.781Z,19.60
2023-03-12T03:26:35.822Z,23.80
2023-03-12T03:29:03.092Z,19.80
2023-03-12T03:31:30.083Z,20.10
2023-03-12T03:33:57.293Z,13.80
2023-03-12T03:36:24.099Z,20.60
2023-03-12T03:38:59.654Z,20.60
2023-03-12T03:41:27.076Z,21.40
2023-03-12T03:43:58.556Z,24.30
2023-03-12T03:46:26.803Z,20.10
2023-03-12T03:48:58.898Z,22.20
2023-03-12T03:51:26.955Z,17.30
2023-03-12T03:53:56.348Z,20.60
2023-03-12T03:56:23.276Z,20.50
2023-03-12T03:58:50.232Z,23.60
2023-03-12T04:01:18.426Z,19.90
2023-03-12T04:03:45.755Z,19.90
2023-03-12T04:06:13.104Z,18.30
2023-03-12T04:08:40.971Z,20.00
2023-03-12T04:11:14.944Z,22.30
2023-03-12T04:13:41.968Z,17.30
2023-03-12T04:16:10.310Z,23.10
2023-03-12T04:18:37.711Z,26.40
2023-03-12T04:21:07.308Z,24.70
2023-03-12T04:23:34.673Z,24.30
2023-03-12T04:26:01.691Z,22.40
2023-03-12T04:28:28.975Z,18.40
2023-03-12T04:31:01.728Z,24.90
2023-03-12T04:33:39.799Z,21.50
2023-03-12T04:36:08.027Z,18.40
2023-03-12T04:38:36.068Z,17.30
2023-03-12T04:41:08.086Z,19.60
2023-03-12T04:43:37.137Z,20.50
2023-03-12T04:46:05.275Z,23.90
2023-03-12T04:48:34.208Z,24.80
2023-03-12T04:51:03.267Z,17.20
2023-03-12T04:53:30.264Z,17.00
2023-03-12T04:55:57.807Z,16.40
2023-03-12T04:58:24.634Z,20.70
2023-03-12T05:00:51.874Z,19.70
2023-03-12T05:03:19.186Z,18.10
2023-03-12T05:05:46.147Z,18.00
2023-03-12T05:08:13.444Z,22.10
2023-03-12T05:10:45.235Z,17.20
2023-03-12T05:13:22.750Z,21.10
2023-03-12T05:15:52.240Z,14.10
2023-03-12T05:18:21.531Z,17.30
2023-03-12T05:20:59.585Z,17.90
2023-03-12T05:23:26.572Z,12.90
2023-03-12T05:25:53.921Z,13.30
2023-03-12T05:28:21.711Z,17.10
2023-03-12T05:30:48.749Z,18.00
2023-03-12T05:33:15.706Z,16.80
2023-03-12T05:35:42.566Z,15.30
2023-03-12T05:38:09.374Z,16.20
2023-03-12T05:40:36.213Z,9.60
2023-03-12T05:43:03.466Z,14.40
2023-03-12T05:45:30.581Z,14.30
2023-03-12T05:47:58.916Z,12.70
2023-03-12T05:50:27.720Z,13.30
2023-03-12T05:52:54.912Z,17.20
2023-03-12T05:55:21.766Z,14.40
2023-03-12T05:57:48.772Z,13.10
2023-03-12T06:00:16.465Z,13.80
2023-03-12T06:02:48.521Z,16.00
2023-03-12T06:05:15.544Z,14.90
2023-03-12T06:07:42.499Z,15.70
2023-03-12T06:10:10.141Z,16.80
2023-03-12T06:12:37.336Z,14.50
2023-03-12T06:15:05.452Z,13.70
2023-03-12T06:17:32.487Z,16.50
2023-03-12T06:19:59.721Z,15.10
2023-03-12T06:22:27.712Z,14.40
2023-03-12T06:24:55.206Z,10.90
2023-03-12T06:27:23.902Z,15.50
2023-03-12T06:29:51.590Z,13.70
2023-03-12T06:32:18.623Z,13.40
2023-03-12T06:34:45.628Z,11.90
2023-03-12T06:37:12.403Z,15.40
2023-03-12T06:39:39.286Z,13.70
2023-03-12T06:42:06.193Z,15.10
2023-03-12T06:44:33.321Z,14.00
2023-03-12T06:47:00.143Z,12.50
2023-03-12T06:49:27.509Z,14.80
2023-03-12T06:51:56.052Z,11.20
2023-03-12T06:54:22.841Z,12.70
2023-03-12T06:56:49.620Z,13.30
2023-03-12T06:59:16.384Z,11.80
2023-03-12T07:01:43.396Z,10.30
2023-03-12T07:04:10.196Z,9.70
2023-03-12T07:06:36.955Z,9.60
2023-03-12T07:09:05.107Z,11.10
2023-03-12T07:11:32.011Z,8.60
2023-03-12T07:13:58.886Z,7.20
2023-03-12T07:16:25.687Z,9.70
2023-03-12T07:18:52.499Z,10.80
2023-03-12T07:21:24.014Z,8.80
2023-03-12T07:23:51.583Z,13.30
2023-03-12T07:26:19.045Z,8.50
2023-03-12T07:28:46.151Z,7.50
2023-03-12T07:31:13.064Z,9.40
2023-03-12T07:33:40.013Z,10.70
2023-03-12T07:36:07.601Z,14.50
2023-03-12T07:38:34.402Z,11.40
2023-03-12T07:41:01.353Z,12.10
2023-03-12T07:43:28.254Z,8.60
2023-03-12T07:45:55.501Z,13.20
2023-03-12T07:48:22.411Z,13.00
2023-03-12T07:50:49.231Z,13.60
2023-03-12T07:53:17.037Z,12.70
2023-03-12T07:55:46.479Z,10.80
2023-03-12T07:58:15.671Z,12.90
2023-03-12T08:00:42.675Z,10.40
2023-03-12T08:03:09.657Z,15.60
2023-03-12T08:05:36.861Z,9.90
2023-03-12T08:08:04.113Z,13.20
2023-03-12T08:10:31.187Z,12.10
2023-03-12T08:12:58.105Z,11.30
2023-03-12T08:15:25.418Z,9.90
2023-03-12T08:17:52.287Z,14.60
2023-03-12T08:20:19.114Z,9.90
2023-03-12T08:22:45.835Z,12.70
2023-03-12T08:25:13.302Z,9.20
2023-03-12T08:27:40.096Z,9.60
2023-03-12T08:30:08.096Z,10.80
2023-03-12T08:32:36.230Z,10.00
2023-03-12T08:35:05.384Z,9.20
2023-03-12T08:37:33.010Z,9.30
2023-03-12T08:40:00.279Z,10.30
2023-03-12T08:42:27.173Z,10.60
2023-03-12T08:44:54.006Z,6.90
2023-03-12T08:47:20.785Z,8.50
2023-03-12T08:49:47.731Z,8.00
2023-03-12T08:52:14.515Z,8.80
2023-03-12T08:54:41.364Z,8.60
2023-03-12T08:57:08.315Z,8.90
2023-03-12T08:59:35.201Z,11.60
2023-03-12T09:02:01.950Z,8.80
2023-03-12T09:04:28.909Z,9.10
2023-03-12T09:06:55.790Z,9.50
2023-03-12T09:09:22.654Z,8.40
2023-03-12T09:11:49.448Z,8.50
2023-03-12T09:15:16.475Z,9.80
2023-03-12T09:17:03.393Z,11.10
2023-03-12T09:19:30.164Z,9.70
2023-03-12T09:21:57.757Z,9.80
2023-03-12T09:24:24.717Z,8.40
2023-03-12T09:26:51.484Z,9.40
2023-03-12T09:29:18.285Z,8.90
2023-03-12T09:31:45.018Z,7.80
2023-03-12T09:34:11.840Z,9.20
2023-03-12T09:36:38.751Z,12.90
2023-03-12T09:39:05.998Z,9.10
2023-03-12T09:41:37.847Z,11.00
2023-03-12T09:44:10.285Z,11.90
2023-03-12T09:46:45.266Z,9.40
2023-03-12T09:49:19.524Z,8.80
2023-03-12T09:51:51.740Z,8.70
2023-03-12T09:54:39.593Z,8.20
2023-03-12T09:57:13.093Z,7.00
2023-03-12T09:59:39.917Z,7.80
2023-03-12T10:02:29.227Z,8.10
2023-03-12T10:05:02.015Z,9.70
2023-03-12T10:07:45.532Z,10.80
2023-03-12T10:10:27.806Z,6.00
2023-03-12T10:12:54.553Z,7.00
2023-03-12T10:15:36.982Z,8.70
2023-03-12T10:18:08.214Z,10.10
2023-03-12T10:20:53.893Z,10.50
2023-03-12T10:23:33.029Z,8.50
2023-03-12T10:26:14.813Z,10.40
2023-03-12T10:28:44.201Z,5.80
2023-03-12T10:31:21.750Z,6.60
2023-03-12T10:33:54.464Z,7.00
2023-03-12T10:36:26.309Z,5.40
2023-03-12T10:38:53.049Z,5.80
2023-03-12T10:41:24.098Z,7.00
2023-03-12T10:43:51.343Z,8.20
2023-03-12T10:46:34.703Z,5.90
2023-03-12T10:49:25.948Z,6.00
2023-03-12T10:51:55.502Z,7.70
2023-03-12T10:54:30.742Z,6.20
2023-03-12T10:56:57.708Z,7.90
2023-03-12T10:59:29.562Z,7.10
2023-03-12T11:01:57.124Z,9.80
2023-03-12T11:04:30.283Z,5.60
2023-03-12T11:07:12.478Z,8.30
2023-03-12T11:09:39.354Z,6.90
2023-03-12T11:12:24.486Z,5.40
2023-03-12T11:14:51.449Z,6.00
2023-03-12T11:17:22.746Z,5.50
2023-03-12T11:19:49.517Z,6.50
2023-03-12T11:22:29.926Z,6.30
2023-03-12T11:24:59.716Z,6.40
2023-03-12T11:27:38.081Z,6.80
2023-03-12T11:30:07.460Z,5.50
2023-03-12T11:32:45.914Z,8.70
2023-03-12T11:35:16.069Z,12.00
2023-03-12T11:37:59.183Z,5.70
2023-03-12T11:40:46.121Z,4.90
2023-03-12T11:43:43.896Z,5.60
2023-03-12T11:46:22.941Z,8.00
2023-03-12T11:49:02.292Z,6.50
2023-03-12T11:51:33.548Z,2.70
2023-03-12T11:54:15.820Z,6.30
2023-03-12T11:56:51.683Z,6.10
2023-03-12T11:59:41.514Z,5.10
2023-03-12T12:02:38.968Z,5.80
2023-03-12T12:05:29.439Z,9.30
2023-03-12T12:08:16.111Z,5.40
2023-03-12T12:10:46.359Z,3.80
2023-03-12T12:13:18.079Z,3.90
2023-03-12T12:15:53.022Z,5.30
2023-03-12T12:18:38.193Z,5.40
2023-03-12T12:21:27.680Z,5.30
2023-03-12T12:24:10.300Z,4.50
2023-03-12T12:26:56.078Z,3.60
2023-03-12T12:29:45.757Z,4.20
2023-03-12T12:32:19.449Z,3.30
2023-03-12T12:35:01.677Z,6.70
2023-03-12T12:37:46.149Z,3.30
2023-03-12T12:40:31.430Z,5.30
2023-03-12T12:43:07.568Z,4.60
2023-03-12T12:45:40.524Z,4.50
2023-03-12T12:48:17.911Z,7.40
2023-03-12T12:50:48.090Z,7.60
2023-03-12T12:53:23.180Z,6.20
2023-03-12T12:56:00.887Z,4.30
2023-03-12T12:58:31.034Z,4.30
2023-03-12T13:01:00.798Z,6.50
2023-03-12T13:03:29.449Z,5.50
2023-03-12T13:05:59.021Z,3.30
2023-03-12T13:08:43.183Z,9.90
2023-03-12T13:11:18.697Z,8.40
2023-03-12T13:13:51.653Z,13.00
2023-03-12T13:16:35.014Z,5.40
2023-03-12T13:19:16.442Z,6.30
2023-03-12T13:21:54.388Z,4.10
2023-03-12T13:24:29.918Z,6.50
2023-03-12T13:27:15.211Z,6.40
2023-03-12T13:29:42.843Z,3.40
2023-03-12T13:32:37.249Z,5.80
2023-03-12T13:35:11.875Z,7.40
2023-03-12T13:37:54.071Z,4.60
2023-03-12T13:40:34.229Z,4.80
2023-03-12T13:43:11.699Z,4.70
2023-03-12T13:45:57.566Z,4.20
2023-03-12T13:48:25.037Z,5.30
2023-03-12T13:50:58.026Z,4.90
2023-03-12T13:53:35.767Z,6.70
2023-03-12T13:56:22.201Z,4.60
2023-03-12T13:59:05.644Z,5.80
2023-03-12T14:01:40.706Z,7.20
2023-03-12T14:04:20.665Z,5.10
2023-03-12T14:07:09.991Z,5.20
2023-03-12T14:09:50.020Z,7.30
2023-03-12T14:12:25.601Z,8.50
2023-03-12T14:15:08.979Z,6.90
2023-03-12T14:17:38.248Z,5.20
2023-03-12T14:20:13.927Z,5.50
2023-03-12T14:22:45.005Z,3.80
2023-03-12T14:25:26.270Z,7.40
2023-03-12T14:27:53.634Z,5.70
2023-03-12T14:30:20.593Z,4.80
2023-03-12T14:32:49.930Z,4.10
2023-03-12T14:35:22.216Z,4.80
2023-03-12T14:38:07.295Z,5.70
2023-03-12T14:40:38.814Z,7.50
2023-03-12T14:43:23.455Z,6.90
2023-03-12T14:45:52.373Z,7.60
2023-03-12T14:48:23.928Z,6.70
2023-03-12T14:50:50.898Z,6.20
2023-03-12T14:53:29.909Z,4.90
2023-03-12T14:56:13.758Z,10.30
2023-03-12T14:58:47.344Z,7.10
2023-03-12T15:01:19.355Z,5.90
2023-03-12T15:03:51.295Z,6.10
2023-03-12T15:06:25.653Z,6.80
2023-03-12T15:08:52.741Z,6.70
2023-03-12T15:11:24.358Z,5.20
2023-03-12T15:13:53.540Z,12.60
2023-03-12T15:16:22.043Z,5.90
2023-03-12T15:18:50.437Z,7.30
2023-03-12T15:21:18.105Z,5.30
2023-03-12T15:23:47.738Z,7.20
2023-03-12T15:26:22.002Z,6.80
2023-03-12T15:28:59.236Z,10.30
2023-03-12T15:31:26.563Z,6.40
2023-03-12T15:34:03.980Z,10.40
2023-03-12T15:36:33.573Z,5.70
2023-03-12T15:39:05.800Z,7.10
2023-03-12T15:41:43.538Z,9.60
2023-03-12T15:44:19.960Z,5.50
2023-03-12T15:46:49.400Z,9.70
2023-03-12T15:49:25.375Z,12.20
2023-03-12T15:51:59.887Z,15.70
2023-03-12T15:54:29.445Z,8.90
2023-03-12T15:57:18.182Z,14.40
2023-03-12T15:59:45.002Z,14.60
2023-03-12T16:02:13.140Z,8.20
2023-03-12T16:04:40.132Z,6.70
2023-03-12T16:07:12.194Z,7.60
2023-03-12T16:09:39.039Z,9.60
2023-03-12T16:12:06.177Z,7.70
2023-03-12T16:14:37.101Z,5.60
2023-03-12T16:17:03.902Z,7.20
2023-03-12T16:19:33.979Z,7.10
2023-03-12T16:22:00.946Z,7.00
2023-03-12T16:24:27.724Z,247.40
2023-03-12T16:26:58.301Z,337.80
2023-03-12T16:29:38.557Z,686.10
2023-03-12T16:32:15.899Z,510.20
2023-03-12T16:34:44.964Z,164.60
2023-03-12T16:37:13.020Z,227.20
2023-03-12T16:39:40.229Z,67.60
2023-03-12T16:42:15.798Z,193.10
2023-03-12T16:44:46.048Z,20.60
2023-03-12T16:47:14.501Z,12.30
2023-03-12T16:49:41.583Z,14.50
2023-03-12T16:52:19.051Z,13.00
2023-03-12T16:54:45.971Z,14.80
2023-03-12T16:57:19.505Z,16.20
2023-03-12T16:59:46.360Z,15.00
2023-03-12T17:02:16.770Z,43.50
2023-03-12T17:04:43.697Z,50.50
2023-03-12T17:07:10.682Z,99.90
2023-03-12T17:09:37.708Z,31.20
2023-03-12T17:12:04.621Z,76.20
2023-03-12T17:14:31.813Z,78.40
2023-03-12T17:16:58.601Z,96.60
2023-03-12T17:19:25.404Z,62.50
2023-03-12T17:21:52.660Z,60.50
2023-03-12T17:24:19.563Z,115.10
2023-03-12T17:26:46.591Z,54.90
2023-03-12T17:29:15.702Z,51.10
2023-03-12T17:31:42.536Z,61.30
2023-03-12T17:34:09.746Z,45.10
2023-03-12T17:36:38.018Z,27.40
2023-03-12T17:39:05.129Z,31.90
2023-03-12T17:41:33.292Z,16.70
2023-03-12T17:44:02.200Z,50.00
2023-03-12T17:46:30.787Z,22.00
2023-03-12T17:48:57.652Z,15.80
2023-03-12T17:51:24.813Z,23.00
2023-03-12T17:53:51.581Z,13.60
2023-03-12T17:56:18.528Z,11.10
2023-03-12T17:58:45.691Z,14.80
2023-03-12T18:01:13.618Z,10.10
2023-03-12T18:03:40.813Z,25.80
2023-03-12T18:06:07.629Z,17.90
2023-03-12T18:08:34.420Z,13.40
2023-03-12T18:11:03.034Z,11.50
2023-03-12T18:13:30.751Z,18.70
2023-03-12T18:15:58.980Z,24.40
2023-03-12T18:18:26.786Z,80.80
2023-03-12T18:20:54.362Z,54.90
2023-03-12T18:23:21.241Z,37.10
2023-03-12T18:25:47.976Z,26.40
2023-03-12T18:28:15.412Z,46.10
2023-03-12T18:30:44.972Z,40.70
2023-03-12T18:33:11.818Z,46.10
2023-03-12T18:35:38.718Z,53.70
2023-03-12T18:38:05.806Z,50.30
2023-03-12T18:40:33.216Z,17.50
2023-03-12T18:43:00.672Z,18.80
2023-03-12T18:45:28.078Z,20.90
2023-03-12T18:47:54.977Z,16.00
2023-03-12T18:50:22.536Z,13.10
2023-03-12T18:52:49.324Z,16.60
2023-03-12T18:55:16.315Z,13.90
2023-03-12T18:57:44.671Z,13.40
2023-03-12T19:00:14.682Z,13.70
2023-03-12T19:02:57.634Z,19.90
2023-03-12T19:05:24.408Z,21.20
2023-03-12T19:07:51.521Z,20.20
2023-03-12T19:10:18.510Z,14.90
2023-03-12T19:12:52.670Z,22.60
2023-03-12T19:15:21.884Z,19.40
2023-03-12T19:17:48.699Z,18.90
2023-03-12T19:20:15.870Z,18.90
2023-03-12T19:22:42.669Z,22.50
2023-03-12T19:25:09.646Z,15.30
2023-03-12T19:27:36.423Z,15.10
2023-03-12T19:30:04.110Z,15.40
2023-03-12T19:32:42.269Z,16.90
2023-03-12T19:35:11.333Z,17.90
2023-03-12T19:37:38.176Z,18.50
2023-03-12T19:40:05.942Z,21.60
2023-03-12T19:42:32.818Z,24.20
2023-03-12T19:44:59.701Z,20.00
2023-03-12T19:47:26.846Z,28.90
2023-03-12T19:49:53.985Z,76.00
2023-03-12T19:52:20.782Z,41.00
2023-03-12T19:55:01.459Z,36.00
2023-03-12T19:57:31.702Z,26.10
2023-03-12T19:59:58.576Z,26.00
2023-03-12T20:02:26.363Z,22.70
2023-03-12T20:04:53.299Z,49.50
2023-03-12T20:07:20.027Z,28.70
2023-03-12T20:09:46.865Z,25.90
2023-03-12T20:12:13.700Z,21.40
2023-03-12T20:14:42.650Z,23.20
2023-03-12T20:17:11.554Z,21.30
2023-03-12T20:19:39.005Z,18.80
2023-03-12T20:22:06.981Z,26.30
2023-03-12T20:24:34.158Z,22.40
2023-03-12T20:27:01.673Z,28.10
2023-03-12T20:29:28.469Z,22.50
2023-03-12T20:31:55.330Z,23.70
2023-03-12T20:34:22.573Z,24.50
2023-03-12T20:36:51.833Z,93.70
2023-03-12T20:39:18.622Z,37.10
2023-03-12T20:41:45.364Z,37.50
2023-03-12T20:44:12.221Z,49.10
2023-03-12T20:46:38.989Z,96.80
2023-03-12T20:49:05.938Z,32.20
2023-03-12T20:51:32.700Z,248.10
2023-03-12T20:53:59.445Z,53.90
2023-03-12T20:56:26.326Z,33.90
2023-03-12T20:58:53.993Z,35.80
2023-03-12T21:01:20.892Z,34.70
2023-03-12T21:03:47.842Z,31.70
2023-03-12T21:06:14.661Z,31.90
2023-03-12T21:08:41.374Z,33.50
2023-03-12T21:11:08.809Z,39.90
2023-03-12T21:13:36.399Z,48.40
2023-03-12T21:16:05.653Z,37.70
2023-03-12T21:18:32.610Z,45.00
2023-03-12T21:21:04.677Z,47.90
2023-03-12T21:23:32.467Z,42.70
2023-03-12T21:26:01.982Z,36.60
2023-03-12T21:28:29.325Z,35.70
2023-03-12T21:30:56.368Z,61.40
2023-03-12T21:33:23.174Z,40.30
2023-03-12T21:35:51.988Z,94.00
2023-03-12T21:38:19.458Z,48.90
2023-03-12T21:40:47.316Z,33.50
2023-03-12T21:43:14.053Z,35.00
2023-03-12T21:45:42.698Z,70.70
2023-03-12T21:48:09.643Z,34.10
2023-03-12T21:50:36.387Z,31.50
2023-03-12T21:53:06.894Z,49.20
2023-03-12T21:55:41.268Z,206.70
2023-03-12T21:58:08.316Z,113.40
2023-03-12T22:00:35.117Z,248.40
2023-03-12T22:03:01.948Z,116.90
2023-03-12T22:05:28.710Z,144.20
2023-03-12T22:07:55.501Z,88.80
2023-03-12T22:10:22.327Z,58.70
2023-03-12T22:12:49.121Z,127.30
2023-03-12T22:15:16.029Z,115.90
2023-03-12T22:17:42.942Z,57.60
2023-03-12T22:20:10.661Z,52.30
2023-03-12T22:22:37.497Z,43.70
2023-03-12T22:25:04.640Z,50.40
2023-03-12T22:27:31.390Z,53.90
2023-03-12T22:29:58.132Z,73.20
2023-03-12T22:32:25.859Z,96.20
2023-03-12T22:34:52.647Z,123.90
2023-03-12T22:37:19.402Z,46.20
2023-03-12T22:39:46.200Z,84.70
2023-03-12T22:42:12.966Z,89.80
2023-03-12T22:44:41.475Z,37.70
2023-03-12T22:47:08.696Z,31.50
2023-03-12T22:49:35.819Z,19.70
2023-03-12T22:52:02.627Z,16.30
2023-03-12T22:54:29.385Z,18.90
2023-03-12T22:56:56.100Z,17.70
2023-03-12T22:59:22.867Z,20.80
2023-03-12T23:01:49.689Z,26.20
2023-03-12T23:04:16.586Z,17.20
2023-03-12T23:06:44.218Z,30.60
2023-03-12T23:09:11.233Z,34.40
2023-03-12T23:11:38.954Z,19.60
2023-03-12T23:14:05.775Z,45.00
2023-03-12T23:16:32.627Z,43.10
2023-03-12T23:19:00.396Z,21.70
2023-03-12T23:21:27.239Z,29.50
2023-03-12T23:23:54.305Z,12.90
2023-03-12T23:26:24.052Z,17.00
2023-03-12T23:28:53.368Z,11.90
2023-03-12T23:31:21.357Z,11.90
2023-03-12T23:33:48.212Z,11.90
2023-03-12T23:36:18.891Z,11.10
2023-03-12T23:38:47.068Z,16.40
2023-03-12T23:41:16.854Z,9.20
2023-03-12T23:43:44.204Z,13.20
2023-03-12T23:46:12.133Z,10.20
2023-03-12T23:48:40.100Z,10.20
2023-03-12T23:51:09.889Z,8.60
2023-03-12T23:53:37.778Z,10.30
2023-03-12T23:56:08.112Z,8.30
2023-03-12T23:58:35.952Z,8.10
